Private Wetterstation Sandau
Wetterdaten: Mittwoch, 15.08.2012
Datum Zeit Temp. A. Feuchte A. Luftdruck Regen Wind Richtung Richtung Taupunkt Windchill
15.08.2012 00:01 15,3 C 72 % 1018,6 hPa 0,0 l/m 4,7 km/h (1 Bft) O-SO 112 10,3 C 15,3 C
15.08.2012 00:06 15,2 C 72 % 1018,7 hPa 0,0 l/m 1,1 km/h (1 Bft) O-SO 112 10,2 C 15,2 C
15.08.2012 00:11 14,9 C 72 % 1018,7 hPa 0,0 l/m 4,0 km/h (1 Bft) O 90 9,9 C 14,9 C
15.08.2012 00:16 14,9 C 73 % 1018,7 hPa 0,0 l/m 2,2 km/h (1 Bft) O-NO 67 10,1 C 14,9 C
15.08.2012 00:21 14,9 C 73 % 1018,6 hPa 0,0 l/m 1,4 km/h (1 Bft) O-SO 112 10,1 C 14,9 C
15.08.2012 00:26 14,9 C 74 % 1018,6 hPa 0,0 l/m 3,6 km/h (1 Bft) O 90 10,3 C 14,9 C
15.08.2012 00:31 14,8 C 74 % 1018,7 hPa 0,0 l/m 5,4 km/h (1 Bft) O 90 10,2 C 14,8 C
15.08.2012 00:36 14,6 C 75 % 1018,7 hPa 0,0 l/m 5,0 km/h (1 Bft) NO 45 10,2 C 14,6 C
15.08.2012 00:41 14,6 C 75 % 1018,7 hPa 0,0 l/m 2,9 km/h (1 Bft) O-NO 67 10,2 C 14,6 C
15.08.2012 00:46 14,5 C 76 % 1018,7 hPa 0,0 l/m 2,5 km/h (1 Bft) O 90 10,3 C 14,5 C
15.08.2012 00:51 14,5 C 76 % 1018,7 hPa 0,0 l/m 4,3 km/h (1 Bft) O-SO 112 10,3 C 14,5 C
15.08.2012 00:56 14,4 C 76 % 1018,7 hPa 0,0 l/m 3,6 km/h (1 Bft) O-SO 112 10,2 C 14,4 C
15.08.2012 01:01 14,4 C 77 % 1018,6 hPa 0,0 l/m 3,6 km/h (1 Bft) O-SO 112 10,4 C 14,4 C
15.08.2012 01:06 14,3 C 77 % 1018,6 hPa 0,0 l/m 5,4 km/h (1 Bft) O 90 10,3 C 14,3 C
15.08.2012 01:11 14,2 C 77 % 1018,6 hPa 0,0 l/m 5,0 km/h (1 Bft) O-NO 67 10,2 C 14,2 C
15.08.2012 01:16 14,1 C 77 % 1018,6 hPa 0,0 l/m 5,0 km/h (1 Bft) O 90 10,1 C 14,1 C
15.08.2012 01:21 14,1 C 78 % 1018,6 hPa 0,0 l/m 4,7 km/h (1 Bft) O-SO 112 10,3 C 14,1 C
15.08.2012 01:26 14,0 C 78 % 1018,7 hPa 0,0 l/m 4,3 km/h (1 Bft) O 90 10,2 C 14,0 C
15.08.2012 01:31 13,9 C 78 % 1018,7 hPa 0,0 l/m 3,2 km/h (1 Bft) NO 45 10,1 C 13,9 C
15.08.2012 01:36 13,9 C 78 % 1018,6 hPa 0,0 l/m 3,2 km/h (1 Bft) O-NO 67 10,1 C 13,9 C
15.08.2012 01:41 13,8 C 78 % 1018,7 hPa 0,0 l/m 5,0 km/h (1 Bft) O 90 10,0 C 13,8 C
15.08.2012 01:46 13,8 C 78 % 1018,7 hPa 0,0 l/m 5,0 km/h (1 Bft) O-NO 67 10,0 C 13,8 C
15.08.2012 01:51 13,7 C 79 % 1018,7 hPa 0,0 l/m 4,0 km/h (1 Bft) O-NO 67 10,1 C 13,7 C
15.08.2012 01:56 13,6 C 79 % 1018,6 hPa 0,0 l/m 2,2 km/h (1 Bft) O-NO 67 10,0 C 13,6 C
15.08.2012 02:01 13,6 C 79 % 1018,6 hPa 0,0 l/m 1,8 km/h (1 Bft) O-NO 67 10,0 C 13,6 C
15.08.2012 02:06 13,6 C 80 % 1018,5 hPa 0,0 l/m 0,0 km/h (0 Bft) O-NO 67 10,2 C 13,6 C
15.08.2012 02:11 13,5 C 80 % 1018,6 hPa 0,0 l/m 3,6 km/h (1 Bft) O 90 10,1 C 13,5 C
15.08.2012 02:16 13,5 C 80 % 1018,6 hPa 0,0 l/m 4,0 km/h (1 Bft) O-SO 112 10,1 C 13,5 C
15.08.2012 02:21 13,4 C 80 % 1018,6 hPa 0,0 l/m 5,4 km/h (1 Bft) O 90 10,0 C 13,4 C
15.08.2012 02:26 13,4 C 80 % 1018,6 hPa 0,0 l/m 5,0 km/h (1 Bft) O 90 10,0 C 13,4 C
15.08.2012 02:31 13,4 C 80 % 1018,7 hPa 0,0 l/m 1,8 km/h (1 Bft) O-NO 67 10,0 C 13,4 C
15.08.2012 02:36 13,3 C 80 % 1018,6 hPa 0,0 l/m 3,2 km/h (1 Bft) O-SO 112 9,9 C 13,3 C
15.08.2012 02:41 13,3 C 80 % 1018,6 hPa 0,0 l/m 4,0 km/h (1 Bft) O 90 9,9 C 13,3 C
15.08.2012 02:46 13,2 C 81 % 1018,6 hPa 0,0 l/m 3,6 km/h (1 Bft) O-NO 67 10,0 C 13,2 C
15.08.2012 02:51 13,2 C 81 % 1018,6 hPa 0,0 l/m 0,0 km/h (0 Bft) O-SO 112 10,0 C 13,2 C
15.08.2012 02:56 13,1 C 81 % 1018,5 hPa 0,0 l/m 2,9 km/h (1 Bft) NO 45 9,9 C 13,1 C
15.08.2012 03:01 13,0 C 81 % 1018,7 hPa 0,0 l/m 0,0 km/h (0 Bft) O-NO 67 9,8 C 13,0 C
15.08.2012 03:06 12,9 C 81 % 1018,6 hPa 0,0 l/m 1,4 km/h (1 Bft) O-NO 67 9,7 C 12,9 C
15.08.2012 03:11 12,9 C 81 % 1018,5 hPa 0,0 l/m 4,7 km/h (1 Bft) NO 45 9,7 C 12,9 C
15.08.2012 03:16 12,9 C 81 % 1018,5 hPa 0,0 l/m 2,2 km/h (1 Bft) O-SO 112 9,7 C 12,9 C
15.08.2012 03:21 12,8 C 82 % 1018,5 hPa 0,0 l/m 2,5 km/h (1 Bft) O-SO 112 9,8 C 12,8 C
15.08.2012 03:26 12,8 C 82 % 1018,5 hPa 0,0 l/m 3,6 km/h (1 Bft) O-SO 112 9,8 C 12,8 C
15.08.2012 03:31 12,7 C 82 % 1018,5 hPa 0,0 l/m 2,9 km/h (1 Bft) O-SO 112 9,7 C 12,7 C
15.08.2012 03:36 12,6 C 83 % 1018,5 hPa 0,0 l/m 2,2 km/h (1 Bft) O-NO 67 9,8 C 12,6 C
15.08.2012 03:41 12,5 C 83 % 1018,3 hPa 0,0 l/m 3,6 km/h (1 Bft) O-SO 112 9,7 C 12,5 C
15.08.2012 03:46 12,4 C 84 % 1018,3 hPa 0,0 l/m 2,9 km/h (1 Bft) O-SO 112 9,8 C 12,4 C
15.08.2012 03:51 12,4 C 84 % 1018,2 hPa 0,0 l/m 0,0 km/h (0 Bft) O-SO 112 9,8 C 12,4 C
15.08.2012 03:56 12,3 C 84 % 1018,3 hPa 0,0 l/m 2,2 km/h (1 Bft) SO 135 9,7 C 12,3 C
15.08.2012 04:01 12,3 C 84 % 1018,2 hPa 0,0 l/m 2,9 km/h (1 Bft) O-SO 112 9,7 C 12,3 C
15.08.2012 04:06 12,2 C 84 % 1018,1 hPa 0,0 l/m 1,8 km/h (1 Bft) O-NO 67 9,6 C 12,2 C
15.08.2012 04:11 12,1 C 84 % 1018,1 hPa 0,0 l/m 2,2 km/h (1 Bft) O-NO 67 9,5 C 12,1 C
15.08.2012 04:16 12,1 C 85 % 1018,1 hPa 0,0 l/m 2,2 km/h (1 Bft) O 90 9,7 C 12,1 C
15.08.2012 04:21 11,9 C 85 % 1018,0 hPa 0,0 l/m 1,8 km/h (1 Bft) O-NO 67 9,5 C 11,9 C
15.08.2012 04:26 11,9 C 85 % 1018,0 hPa 0,0 l/m 4,3 km/h (1 Bft) O 90 9,5 C 11,9 C
15.08.2012 04:31 11,9 C 85 % 1018,0 hPa 0,0 l/m 4,7 km/h (1 Bft) O-NO 67 9,5 C 11,9 C
15.08.2012 04:36 11,9 C 85 % 1018,0 hPa 0,0 l/m 5,8 km/h (2 Bft) O 90 9,5 C 11,9 C
15.08.2012 04:41 11,8 C 86 % 1017,9 hPa 0,0 l/m 6,1 km/h (2 Bft) O-SO 112 9,5 C 11,8 C
15.08.2012 04:46 11,8 C 86 % 1018,0 hPa 0,0 l/m 2,5 km/h (1 Bft) O 90 9,5 C 11,8 C
15.08.2012 04:51 11,8 C 86 % 1018,1 hPa 0,0 l/m 1,1 km/h (1 Bft) O-NO 67 9,5 C 11,8 C
15.08.2012 04:56 11,8 C 86 % 1018,1 hPa 0,0 l/m 3,2 km/h (1 Bft) O-NO 67 9,5 C 11,8 C
15.08.2012 05:01 11,8 C 86 % 1017,9 hPa 0,0 l/m 1,8 km/h (1 Bft) O-SO 112 9,5 C 11,8 C
15.08.2012 05:06 11,8 C 86 % 1017,9 hPa 0,0 l/m 2,2 km/h (1 Bft) O-SO 112 9,5 C 11,8 C
15.08.2012 05:11 11,7 C 86 % 1018,2 hPa 0,0 l/m 3,2 km/h (1 Bft) O-SO 112 9,4 C 11,7 C
15.08.2012 05:16 11,6 C 86 % 1018,0 hPa 0,0 l/m 0,0 km/h (0 Bft) O-SO 112 9,3 C 11,6 C
15.08.2012 05:21 11,6 C 86 % 1018,0 hPa 0,0 l/m 0,0 km/h (0 Bft) O-SO 112 9,3 C 11,6 C
15.08.2012 05:26 11,5 C 86 % 1018,0 hPa 0,0 l/m 0,0 km/h (0 Bft) O-SO 112 9,2 C 11,5 C
15.08.2012 05:31 11,4 C 85 % 1018,1 hPa 0,0 l/m 0,0 km/h (0 Bft) O-SO 112 9,0 C 11,4 C
15.08.2012 05:36 11,2 C 85 % 1018,0 hPa 0,0 l/m 0,0 km/h (0 Bft) O-SO 112 8,8 C 11,2 C
15.08.2012 05:41 11,2 C 85 % 1018,0 hPa 0,0 l/m 0,0 km/h (0 Bft) O-SO 112 8,8 C 11,2 C
15.08.2012 05:46 11,1 C 85 % 1018,0 hPa 0,0 l/m 0,0 km/h (0 Bft) O-SO 112 8,7 C 11,1 C
15.08.2012 05:51 11,1 C 85 % 1018,0 hPa 0,0 l/m 0,0 km/h (0 Bft) O-SO 112 8,7 C 11,1 C
15.08.2012 05:56 10,9 C 84 % 1018,1 hPa 0,0 l/m 0,0 km/h (0 Bft) O-SO 112 8,3 C 10,9 C
15.08.2012 06:01 10,9 C 84 % 1018,1 hPa 0,0 l/m 0,0 km/h (0 Bft) O-SO 112 8,3 C 10,9 C
15.08.2012 06:06 10,8 C 84 % 1018,2 hPa 0,0 l/m 0,0 km/h (0 Bft) O-SO 112 8,2 C 10,8 C
15.08.2012 06:11 10,8 C 85 % 1018,2 hPa 0,0 l/m 0,0 km/h (0 Bft) O-SO 112 8,4 C 10,8 C
15.08.2012 06:16 10,9 C 85 % 1018,2 hPa 0,0 l/m 0,0 km/h (0 Bft) O-SO 112 8,5 C 10,9 C
15.08.2012 06:21 10,9 C 86 % 1018,2 hPa 0,0 l/m 0,0 km/h (0 Bft) O-SO 112 8,7 C 10,9 C
15.08.2012 06:26 10,9 C 86 % 1018,3 hPa 0,0 l/m 1,4 km/h (1 Bft) O-SO 112 8,7 C 10,9 C
15.08.2012 06:31 11,0 C 86 % 1018,3 hPa 0,0 l/m 0,0 km/h (0 Bft) O-SO 112 8,7 C 11,0 C
15.08.2012 06:36 11,1 C 86 % 1018,3 hPa 0,0 l/m 0,0 km/h (0 Bft) O-SO 112 8,8 C 11,1 C
15.08.2012 06:41 11,2 C 86 % 1018,4 hPa 0,0 l/m 0,0 km/h (0 Bft) O-SO 112 8,9 C 11,2 C
15.08.2012 06:46 11,3 C 87 % 1018,4 hPa 0,0 l/m 0,0 km/h (0 Bft) O-SO 112 9,2 C 11,3 C
15.08.2012 06:51 12,2 C 89 % 1018,3 hPa 0,0 l/m 0,0 km/h (0 Bft) SO 135 10,4 C 12,2 C
15.08.2012 06:56 13,3 C 87 % 1018,4 hPa 0,0 l/m 0,0 km/h (0 Bft) SO 135 11,2 C 13,3 C
15.08.2012 07:01 14,1 C 84 % 1018,3 hPa 0,0 l/m 0,0 km/h (0 Bft) O-SO 112 11,4 C 14,1 C
15.08.2012 07:06 14,7 C 81 % 1018,4 hPa 0,0 l/m 3,2 km/h (1 Bft) SO 135 11,5 C 14,7 C
15.08.2012 07:11 14,8 C 79 % 1018,4 hPa 0,0 l/m 1,4 km/h (1 Bft) O 90 11,2 C 14,8 C
15.08.2012 07:16 14,5 C 78 % 1018,3 hPa 0,0 l/m 3,6 km/h (1 Bft) O-NO 67 10,7 C 14,5 C
15.08.2012 07:21 14,4 C 79 % 1018,2 hPa 0,0 l/m 4,7 km/h (1 Bft) O-SO 112 10,8 C 14,4 C
15.08.2012 07:26 14,3 C 79 % 1018,2 hPa 0,0 l/m 3,2 km/h (1 Bft) O 90 10,7 C 14,3 C
15.08.2012 07:31 14,1 C 79 % 1018,3 hPa 0,0 l/m 6,5 km/h (2 Bft) O-SO 112 10,5 C 14,1 C
15.08.2012 07:36 13,9 C 80 % 1018,2 hPa 0,0 l/m 4,0 km/h (1 Bft) O-SO 112 10,5 C 13,9 C
15.08.2012 07:41 13,9 C 80 % 1018,3 hPa 0,0 l/m 3,2 km/h (1 Bft) O-NO 67 10,5 C 13,9 C
15.08.2012 07:46 13,8 C 81 % 1018,2 hPa 0,0 l/m 8,3 km/h (2 Bft) O 90 10,6 C 13,8 C
15.08.2012 07:51 13,8 C 82 % 1018,3 hPa 0,0 l/m 4,0 km/h (1 Bft) O 90 10,8 C 13,8 C
15.08.2012 07:56 13,8 C 82 % 1018,3 hPa 0,0 l/m 4,7 km/h (1 Bft) O-SO 112 10,8 C 13,8 C
15.08.2012 08:01 13,9 C 82 % 1018,3 hPa 0,0 l/m 3,6 km/h (1 Bft) O 90 10,9 C 13,9 C
15.08.2012 08:06 14,1 C 82 % 1018,3 hPa 0,0 l/m 4,7 km/h (1 Bft) SO 135 11,1 C 14,1 C
15.08.2012 08:11 14,3 C 82 % 1018,3 hPa 0,0 l/m 4,0 km/h (1 Bft) O-SO 112 11,3 C 14,3 C
15.08.2012 08:16 14,6 C 81 % 1018,4 hPa 0,0 l/m 4,0 km/h (1 Bft) O-SO 112 11,4 C 14,6 C
15.08.2012 08:21 14,9 C 81 % 1018,4 hPa 0,0 l/m 7,6 km/h (2 Bft) O-SO 112 11,7 C 14,9 C
15.08.2012 08:26 15,1 C 80 % 1018,3 hPa 0,0 l/m 4,0 km/h (1 Bft) O-SO 112 11,7 C 15,1 C
15.08.2012 08:31 15,3 C 80 % 1018,3 hPa 0,0 l/m 4,7 km/h (1 Bft) O-SO 112 11,9 C 15,3 C
15.08.2012 08:36 15,6 C 80 % 1018,2 hPa 0,0 l/m 5,8 km/h (2 Bft) O-NO 67 12,2 C 15,6 C
15.08.2012 08:41 15,8 C 79 % 1018,2 hPa 0,0 l/m 4,0 km/h (1 Bft) O-NO 67 12,2 C 15,8 C
15.08.2012 08:46 15,9 C 79 % 1018,3 hPa 0,0 l/m 5,8 km/h (2 Bft) O 90 12,3 C 15,9 C
15.08.2012 08:51 16,2 C 79 % 1018,2 hPa 0,0 l/m 7,6 km/h (2 Bft) O-SO 112 12,6 C 16,2 C
15.08.2012 08:56 16,4 C 79 % 1018,3 hPa 0,0 l/m 5,0 km/h (1 Bft) O-NO 67 12,7 C 16,4 C
15.08.2012 09:01 16,6 C 78 % 1018,4 hPa 0,0 l/m 4,7 km/h (1 Bft) O-SO 112 12,7 C 16,6 C
15.08.2012 09:06 16,8 C 77 % 1018,5 hPa 0,0 l/m 6,1 km/h (2 Bft) O-NO 67 12,7 C 16,8 C
15.08.2012 09:11 16,9 C 76 % 1018,5 hPa 0,0 l/m 7,6 km/h (2 Bft) S-SO 157 12,6 C 16,9 C
15.08.2012 09:16 17,1 C 75 % 1018,6 hPa 0,0 l/m 4,0 km/h (1 Bft) O-NO 67 12,6 C 17,1 C
15.08.2012 09:21 17,3 C 75 % 1018,6 hPa 0,0 l/m 11,5 km/h (2 Bft) O-SO 112 12,8 C 17,3 C
15.08.2012 09:26 17,6 C 74 % 1018,6 hPa 0,0 l/m 7,9 km/h (2 Bft) O-SO 112 12,9 C 17,6 C
15.08.2012 09:31 17,8 C 73 % 1018,7 hPa 0,0 l/m 5,0 km/h (1 Bft) O-NO 67 12,9 C 17,8 C
15.08.2012 09:36 17,8 C 72 % 1018,6 hPa 0,0 l/m 7,9 km/h (2 Bft) O-SO 112 12,7 C 17,8 C
15.08.2012 09:41 18,1 C 73 % 1018,6 hPa 0,0 l/m 3,6 km/h (1 Bft) SO 135 13,2 C 18,1 C
15.08.2012 09:46 18,2 C 71 % 1018,6 hPa 0,0 l/m 7,9 km/h (2 Bft) O-SO 112 12,9 C 18,2 C
15.08.2012 09:51 18,3 C 71 % 1018,6 hPa 0,0 l/m 5,4 km/h (1 Bft) O 90 12,9 C 18,3 C
15.08.2012 09:56 18,6 C 70 % 1018,6 hPa 0,0 l/m 7,6 km/h (2 Bft) O-NO 67 13,0 C 18,6 C
15.08.2012 10:01 18,9 C 69 % 1018,6 hPa 0,0 l/m 7,6 km/h (2 Bft) SO 135 13,1 C 18,9 C
15.08.2012 10:06 19,2 C 68 % 1018,6 hPa 0,0 l/m 6,8 km/h (2 Bft) NO 45 13,1 C 19,2 C
15.08.2012 10:11 19,0 C 66 % 1018,6 hPa 0,0 l/m 7,9 km/h (2 Bft) S-SO 157 12,5 C 19,0 C
15.08.2012 10:16 18,9 C 67 % 1018,6 hPa 0,0 l/m 0,0 km/h (0 Bft) SO 135 12,6 C 18,9 C
15.08.2012 10:21 18,8 C 67 % 1018,6 hPa 0,0 l/m 6,1 km/h (2 Bft) O-NO 67 12,5 C 18,8 C
15.08.2012 10:26 18,9 C 65 % 1018,6 hPa 0,0 l/m 1,1 km/h (1 Bft) O-NO 67 12,2 C 18,9 C
15.08.2012 10:31 19,2 C 65 % 1018,6 hPa 0,0 l/m 10,1 km/h (2 Bft) O 90 12,5 C 19,2 C
15.08.2012 10:36 19,5 C 63 % 1018,5 hPa 0,0 l/m 10,8 km/h (2 Bft) SO 135 12,3 C 19,5 C
15.08.2012 10:41 19,5 C 61 % 1018,5 hPa 0,0 l/m 7,2 km/h (2 Bft) O-NO 67 11,8 C 19,5 C
15.08.2012 10:46 19,7 C 62 % 1018,6 hPa 0,0 l/m 14,4 km/h (3 Bft) S-SO 157 12,2 C 19,7 C
15.08.2012 10:51 20,1 C 60 % 1018,6 hPa 0,0 l/m 6,1 km/h (2 Bft) O-NO 67 12,1 C 20,1 C
15.08.2012 10:56 20,2 C 59 % 1018,6 hPa 0,0 l/m 7,2 km/h (2 Bft) SO 135 11,9 C 20,2 C
15.08.2012 11:01 20,2 C 60 % 1018,5 hPa 0,0 l/m 4,7 km/h (1 Bft) O-SO 112 12,2 C 20,2 C
15.08.2012 11:06 20,2 C 59 % 1018,5 hPa 0,0 l/m 11,2 km/h (2 Bft) O-NO 67 11,9 C 20,2 C
15.08.2012 11:11 20,3 C 59 % 1018,4 hPa 0,0 l/m 10,1 km/h (2 Bft) O-NO 67 12,0 C 20,3 C
15.08.2012 11:16 20,4 C 58 % 1018,5 hPa 0,0 l/m 7,6 km/h (2 Bft) O-SO 112 11,9 C 20,4 C
15.08.2012 11:21 20,5 C 58 % 1018,4 hPa 0,0 l/m 9,7 km/h (2 Bft) SO 135 11,9 C 20,5 C
15.08.2012 11:26 20,6 C 57 % 1018,2 hPa 0,0 l/m 7,6 km/h (2 Bft) SO 135 11,8 C 20,6 C
15.08.2012 11:31 20,9 C 56 % 1018,3 hPa 0,0 l/m 1,8 km/h (1 Bft) O-SO 112 11,8 C 20,9 C
15.08.2012 11:36 21,0 C 57 % 1018,2 hPa 0,0 l/m 8,3 km/h (2 Bft) O-NO 67 12,1 C 21,0 C
15.08.2012 11:41 20,9 C 56 % 1018,2 hPa 0,0 l/m 6,1 km/h (2 Bft) O-NO 67 11,8 C 20,9 C
15.08.2012 11:46 20,7 C 55 % 1018,1 hPa 0,0 l/m 9,4 km/h (2 Bft) O-NO 67 11,3 C 20,7 C
15.08.2012 11:51 20,5 C 56 % 1018,1 hPa 0,0 l/m 15,8 km/h (3 Bft) O-NO 67 11,4 C 20,5 C
15.08.2012 11:56 20,5 C 56 % 1018,0 hPa 0,0 l/m 6,1 km/h (2 Bft) O-NO 67 11,4 C 20,5 C
15.08.2012 12:01 20,4 C 56 % 1017,9 hPa 0,0 l/m 6,1 km/h (2 Bft) O-NO 67 11,3 C 20,4 C
15.08.2012 12:06 20,4 C 56 % 1017,9 hPa 0,0 l/m 2,5 km/h (1 Bft) O 90 11,3 C 20,4 C
15.08.2012 12:11 20,5 C 56 % 1017,9 hPa 0,0 l/m 2,5 km/h (1 Bft) O-NO 67 11,4 C 20,5 C
15.08.2012 12:16 20,5 C 55 % 1017,9 hPa 0,0 l/m 7,6 km/h (2 Bft) N-NO 22 11,1 C 20,5 C
15.08.2012 12:21 20,8 C 56 % 1017,9 hPa 0,0 l/m 5,8 km/h (2 Bft) O-SO 112 11,7 C 20,8 C
15.08.2012 12:26 21,2 C 55 % 1017,6 hPa 0,0 l/m 0,0 km/h (0 Bft) O-SO 112 11,8 C 21,2 C
15.08.2012 12:31 21,5 C 53 % 1017,6 hPa 0,0 l/m 8,6 km/h (2 Bft) O-SO 112 11,5 C 21,5 C
15.08.2012 12:36 21,6 C 53 % 1017,6 hPa 0,0 l/m 10,4 km/h (2 Bft) O-SO 112 11,6 C 21,6 C
15.08.2012 12:41 21,8 C 52 % 1017,4 hPa 0,0 l/m 14,8 km/h (3 Bft) O-NO 67 11,5 C 21,8 C
15.08.2012 12:46 22,0 C 52 % 1017,5 hPa 0,0 l/m 7,2 km/h (2 Bft) O-SO 112 11,7 C 22,0 C
15.08.2012 12:51 22,2 C 51 % 1017,5 hPa 0,0 l/m 6,5 km/h (2 Bft) SO 135 11,6 C 22,2 C
15.08.2012 12:56 22,4 C 50 % 1017,4 hPa 0,0 l/m 6,8 km/h (2 Bft) S-SO 157 11,5 C 22,4 C
15.08.2012 13:01 22,7 C 49 % 1017,4 hPa 0,0 l/m 4,3 km/h (1 Bft) SO 135 11,4 C 22,7 C
15.08.2012 13:06 23,0 C 49 % 1017,4 hPa 0,0 l/m 3,2 km/h (1 Bft) S 180 11,7 C 23,0 C
15.08.2012 13:11 23,4 C 47 % 1017,3 hPa 0,0 l/m 4,7 km/h (1 Bft) NO 45 11,4 C 23,4 C
15.08.2012 13:16 22,9 C 47 % 1017,1 hPa 0,0 l/m 7,9 km/h (2 Bft) SO 135 11,0 C 22,9 C
15.08.2012 13:21 22,9 C 47 % 1017,0 hPa 0,0 l/m 5,4 km/h (1 Bft) O-NO 67 11,0 C 22,9 C
15.08.2012 13:26 22,9 C 48 % 1017,1 hPa 0,0 l/m 3,2 km/h (1 Bft) SO 135 11,3 C 22,9 C
15.08.2012 13:31 23,4 C 48 % 1017,1 hPa 0,0 l/m 9,0 km/h (2 Bft) NO 45 11,8 C 23,4 C
15.08.2012 13:36 23,6 C 47 % 1017,1 hPa 0,0 l/m 0,0 km/h (0 Bft) O-NO 67 11,6 C 23,6 C
15.08.2012 13:41 23,8 C 46 % 1017,1 hPa 0,0 l/m 7,6 km/h (2 Bft) O-SO 112 11,5 C 23,8 C
15.08.2012 13:46 23,7 C 45 % 1016,9 hPa 0,0 l/m 4,0 km/h (1 Bft) O-SO 112 11,1 C 23,7 C
15.08.2012 13:51 23,6 C 46 % 1016,9 hPa 0,0 l/m 9,0 km/h (2 Bft) NO 45 11,3 C 23,6 C
15.08.2012 13:56 23,5 C 46 % 1016,9 hPa 0,0 l/m 4,0 km/h (1 Bft) SO 135 11,2 C 23,5 C
15.08.2012 14:01 23,5 C 46 % 1016,7 hPa 0,0 l/m 2,5 km/h (1 Bft) NO 45 11,2 C 23,5 C
15.08.2012 14:06 23,8 C 46 % 1016,7 hPa 0,0 l/m 7,2 km/h (2 Bft) S-SW 202 11,5 C 23,8 C
15.08.2012 14:11 24,1 C 45 % 1016,6 hPa 0,0 l/m 5,0 km/h (1 Bft) SO 135 11,4 C 24,1 C
15.08.2012 14:16 24,2 C 44 % 1016,6 hPa 0,0 l/m 4,0 km/h (1 Bft) O-SO 112 11,2 C 24,2 C
15.08.2012 14:21 24,1 C 45 % 1016,5 hPa 0,0 l/m 11,9 km/h (2 Bft) SO 135 11,4 C 24,1 C
15.08.2012 14:26 24,3 C 45 % 1016,4 hPa 0,0 l/m 5,4 km/h (1 Bft) S-SO 157 11,6 C 24,3 C
15.08.2012 14:31 23,9 C 45 % 1016,6 hPa 0,0 l/m 2,2 km/h (1 Bft) S 180 11,2 C 23,9 C
15.08.2012 14:36 24,3 C 45 % 1016,7 hPa 0,0 l/m 2,2 km/h (1 Bft) W-SW 247 11,6 C 24,3 C
15.08.2012 14:41 24,4 C 44 % 1016,6 hPa 0,0 l/m 7,2 km/h (2 Bft) O-NO 67 11,3 C 24,4 C
15.08.2012 14:46 24,3 C 44 % 1016,5 hPa 0,0 l/m 6,5 km/h (2 Bft) SO 135 11,3 C 24,3 C
15.08.2012 14:51 24,3 C 44 % 1016,4 hPa 0,0 l/m 3,2 km/h (1 Bft) O-SO 112 11,3 C 24,3 C
15.08.2012 14:56 24,3 C 44 % 1016,4 hPa 0,0 l/m 6,1 km/h (2 Bft) S-SO 157 11,3 C 24,3 C
15.08.2012 15:01 23,9 C 45 % 1016,3 hPa 0,0 l/m 4,0 km/h (1 Bft) NO 45 11,2 C 23,9 C
15.08.2012 15:06 24,2 C 45 % 1016,1 hPa 0,0 l/m 7,2 km/h (2 Bft) O-SO 112 11,5 C 24,2 C
15.08.2012 15:11 24,3 C 44 % 1016,1 hPa 0,0 l/m 8,6 km/h (2 Bft) O-SO 112 11,3 C 24,3 C
15.08.2012 15:16 24,6 C 45 % 1015,9 hPa 0,0 l/m 9,7 km/h (2 Bft) O 90 11,9 C 24,6 C
15.08.2012 15:21 24,6 C 44 % 1016,0 hPa 0,0 l/m 12,2 km/h (2 Bft) O-NO 67 11,5 C 24,6 C
15.08.2012 15:26 24,6 C 44 % 1015,9 hPa 0,0 l/m 6,1 km/h (2 Bft) O-SO 112 11,5 C 24,6 C
15.08.2012 15:31 24,5 C 44 % 1016,0 hPa 0,0 l/m 11,2 km/h (2 Bft) O-SO 112 11,4 C 24,5 C
15.08.2012 15:36 24,4 C 43 % 1015,9 hPa 0,0 l/m 8,3 km/h (2 Bft) O-NO 67 11,0 C 24,4 C
15.08.2012 15:41 24,3 C 44 % 1016,0 hPa 0,0 l/m 7,2 km/h (2 Bft) NO 45 11,3 C 24,3 C
15.08.2012 15:46 24,2 C 44 % 1015,8 hPa 0,0 l/m 3,6 km/h (1 Bft) N-NO 22 11,2 C 24,2 C
15.08.2012 15:51 24,4 C 44 % 1015,7 hPa 0,0 l/m 10,4 km/h (2 Bft) SO 135 11,3 C 24,4 C
15.08.2012 15:56 24,4 C 44 % 1015,8 hPa 0,0 l/m 5,8 km/h (2 Bft) S-SO 157 11,3 C 24,4 C
15.08.2012 16:01 24,9 C 43 % 1015,7 hPa 0,0 l/m 7,6 km/h (2 Bft) S-SW 202 11,4 C 24,9 C
15.08.2012 16:06 25,1 C 43 % 1015,7 hPa 0,0 l/m 2,9 km/h (1 Bft) NO 45 11,6 C 25,1 C
15.08.2012 16:11 24,9 C 42 % 1015,8 hPa 0,0 l/m 3,6 km/h (1 Bft) S-SO 157 11,1 C 24,9 C
15.08.2012 16:16 24,9 C 43 % 1015,7 hPa 0,0 l/m 5,0 km/h (1 Bft) S 180 11,4 C 24,9 C
15.08.2012 16:21 25,4 C 43 % 1015,7 hPa 0,0 l/m 7,6 km/h (2 Bft) S-SW 202 11,9 C 25,4 C
15.08.2012 16:26 25,5 C 41 % 1015,6 hPa 0,0 l/m 9,0 km/h (2 Bft) O-NO 67 11,3 C 25,5 C
15.08.2012 16:31 25,1 C 42 % 1015,7 hPa 0,0 l/m 9,7 km/h (2 Bft) S-SO 157 11,3 C 25,1 C
15.08.2012 16:36 25,2 C 43 % 1015,6 hPa 0,0 l/m 6,1 km/h (2 Bft) O-SO 112 11,7 C 25,2 C
15.08.2012 16:41 25,2 C 43 % 1015,7 hPa 0,0 l/m 5,8 km/h (2 Bft) S-SO 157 11,7 C 25,2 C
15.08.2012 16:46 25,4 C 42 % 1015,7 hPa 0,0 l/m 3,6 km/h (1 Bft) SO 135 11,5 C 25,4 C
15.08.2012 16:51 25,6 C 42 % 1015,7 hPa 0,0 l/m 7,6 km/h (2 Bft) O-SO 112 11,7 C 25,6 C
15.08.2012 16:56 25,6 C 42 % 1015,6 hPa 0,0 l/m 7,2 km/h (2 Bft) O-SO 112 11,7 C 25,6 C
15.08.2012 17:01 25,3 C 43 % 1015,5 hPa 0,0 l/m 9,4 km/h (2 Bft) O 90 11,8 C 25,3 C
15.08.2012 17:06 25,1 C 43 % 1015,4 hPa 0,0 l/m 3,6 km/h (1 Bft) O-NO 67 11,6 C 25,1 C
15.08.2012 17:11 24,9 C 43 % 1015,5 hPa 0,0 l/m 10,1 km/h (2 Bft) S-SO 157 11,4 C 24,9 C
15.08.2012 17:16 24,7 C 44 % 1015,4 hPa 0,0 l/m 5,0 km/h (1 Bft) O 90 11,6 C 24,7 C
15.08.2012 17:21 24,4 C 44 % 1015,5 hPa 0,0 l/m 3,6 km/h (1 Bft) NO 45 11,3 C 24,4 C
15.08.2012 17:26 24,4 C 44 % 1015,4 hPa 0,0 l/m 8,6 km/h (2 Bft) O-NO 67 11,3 C 24,4 C
15.08.2012 17:31 24,4 C 44 % 1015,6 hPa 0,0 l/m 9,4 km/h (2 Bft) O-SO 112 11,3 C 24,4 C
15.08.2012 17:36 24,4 C 44 % 1015,3 hPa 0,0 l/m 4,0 km/h (1 Bft) NO 45 11,3 C 24,4 C
15.08.2012 17:41 24,4 C 44 % 1015,4 hPa 0,0 l/m 12,2 km/h (2 Bft) SO 135 11,3 C 24,4 C
15.08.2012 17:46 24,3 C 44 % 1015,3 hPa 0,0 l/m 5,0 km/h (1 Bft) O-NO 67 11,3 C 24,3 C
15.08.2012 17:51 24,2 C 44 % 1015,3 hPa 0,0 l/m 5,4 km/h (1 Bft) S-SO 157 11,2 C 24,2 C
15.08.2012 17:56 24,3 C 44 % 1015,2 hPa 0,0 l/m 4,0 km/h (1 Bft) O-SO 112 11,3 C 24,3 C
15.08.2012 18:01 24,3 C 44 % 1015,2 hPa 0,0 l/m 9,4 km/h (2 Bft) SO 135 11,3 C 24,3 C
15.08.2012 18:06 24,4 C 44 % 1015,3 hPa 0,0 l/m 14,0 km/h (3 Bft) SO 135 11,3 C 24,4 C
15.08.2012 18:11 24,3 C 44 % 1015,3 hPa 0,0 l/m 4,7 km/h (1 Bft) O-NO 67 11,3 C 24,3 C
15.08.2012 18:16 24,3 C 44 % 1015,3 hPa 0,0 l/m 4,3 km/h (1 Bft) O-NO 67 11,3 C 24,3 C
15.08.2012 18:21 24,3 C 44 % 1015,3 hPa 0,0 l/m 8,3 km/h (2 Bft) O-SO 112 11,3 C 24,3 C
15.08.2012 18:26 24,2 C 44 % 1015,3 hPa 0,0 l/m 3,6 km/h (1 Bft) SO 135 11,2 C 24,2 C
15.08.2012 18:31 24,1 C 44 % 1015,3 hPa 0,0 l/m 6,5 km/h (2 Bft) O-SO 112 11,1 C 24,1 C
15.08.2012 18:36 24,1 C 44 % 1015,3 hPa 0,0 l/m 5,4 km/h (1 Bft) O-SO 112 11,1 C 24,1 C
15.08.2012 18:41 24,0 C 45 % 1015,3 hPa 0,0 l/m 3,6 km/h (1 Bft) O-NO 67 11,3 C 24,0 C
15.08.2012 18:46 23,9 C 45 % 1015,4 hPa 0,0 l/m 12,2 km/h (2 Bft) O 90 11,2 C 23,9 C
15.08.2012 18:51 23,9 C 45 % 1015,3 hPa 0,0 l/m 9,7 km/h (2 Bft) O-SO 112 11,2 C 23,9 C
15.08.2012 18:56 23,8 C 45 % 1015,5 hPa 0,0 l/m 6,1 km/h (2 Bft) SO 135 11,1 C 23,8 C
15.08.2012 19:01 23,6 C 46 % 1015,4 hPa 0,0 l/m 6,5 km/h (2 Bft) O-NO 67 11,3 C 23,6 C
15.08.2012 19:06 23,3 C 46 % 1015,4 hPa 0,0 l/m 4,0 km/h (1 Bft) O-SO 112 11,0 C 23,3 C
15.08.2012 19:11 23,2 C 46 % 1015,4 hPa 0,0 l/m 3,6 km/h (1 Bft) SO 135 10,9 C 23,2 C
15.08.2012 19:16 23,1 C 47 % 1015,2 hPa 0,0 l/m 2,5 km/h (1 Bft) NO 45 11,2 C 23,1 C
15.08.2012 19:21 23,0 C 47 % 1015,3 hPa 0,0 l/m 3,6 km/h (1 Bft) NO 45 11,1 C 23,0 C
15.08.2012 19:26 22,9 C 47 % 1015,2 hPa 0,0 l/m 2,9 km/h (1 Bft) O-SO 112 11,0 C 22,9 C
15.08.2012 19:31 22,9 C 47 % 1015,1 hPa 0,0 l/m 5,4 km/h (1 Bft) SO 135 11,0 C 22,9 C
15.08.2012 19:36 22,8 C 48 % 1015,1 hPa 0,0 l/m 4,0 km/h (1 Bft) O-SO 112 11,2 C 22,8 C
15.08.2012 19:41 22,7 C 48 % 1015,1 hPa 0,0 l/m 0,0 km/h (0 Bft) O-SO 112 11,1 C 22,7 C
15.08.2012 19:46 22,5 C 49 % 1015,0 hPa 0,0 l/m 1,8 km/h (1 Bft) SO 135 11,2 C 22,5 C
15.08.2012 19:51 22,3 C 49 % 1015,0 hPa 0,0 l/m 8,6 km/h (2 Bft) O-SO 112 11,1 C 22,3 C
15.08.2012 19:56 22,1 C 50 % 1015,0 hPa 0,0 l/m 3,6 km/h (1 Bft) O-SO 112 11,2 C 22,1 C
15.08.2012 20:01 21,8 C 51 % 1015,0 hPa 0,0 l/m 4,7 km/h (1 Bft) NO 45 11,2 C 21,8 C
15.08.2012 20:06 21,6 C 51 % 1014,9 hPa 0,0 l/m 2,2 km/h (1 Bft) O-NO 67 11,0 C 21,6 C
15.08.2012 20:11 21,3 C 52 % 1014,9 hPa 0,0 l/m 5,0 km/h (1 Bft) SO 135 11,0 C 21,3 C
15.08.2012 20:16 21,1 C 52 % 1014,9 hPa 0,0 l/m 8,6 km/h (2 Bft) SO 135 10,9 C 21,1 C
15.08.2012 20:21 20,9 C 53 % 1014,9 hPa 0,0 l/m 5,0 km/h (1 Bft) SO 135 11,0 C 20,9 C
15.08.2012 20:26 20,8 C 53 % 1015,0 hPa 0,0 l/m 8,6 km/h (2 Bft) O-SO 112 10,9 C 20,8 C
15.08.2012 20:31 20,6 C 53 % 1015,0 hPa 0,0 l/m 3,6 km/h (1 Bft) O-NO 67 10,7 C 20,6 C
15.08.2012 20:36 20,4 C 53 % 1015,0 hPa 0,0 l/m 2,9 km/h (1 Bft) O-NO 67 10,5 C 20,4 C
15.08.2012 20:41 20,3 C 53 % 1015,0 hPa 0,0 l/m 3,2 km/h (1 Bft) O 90 10,4 C 20,3 C
15.08.2012 20:46 20,1 C 54 % 1015,0 hPa 0,0 l/m 7,2 km/h (2 Bft) SO 135 10,5 C 20,1 C
15.08.2012 20:51 20,0 C 54 % 1015,2 hPa 0,0 l/m 5,0 km/h (1 Bft) O-SO 112 10,4 C 20,0 C
15.08.2012 20:56 19,9 C 54 % 1015,3 hPa 0,0 l/m 5,0 km/h (1 Bft) SO 135 10,3 C 19,9 C
15.08.2012 21:01 19,9 C 54 % 1015,3 hPa 0,0 l/m 2,2 km/h (1 Bft) S-SO 157 10,3 C 19,9 C
15.08.2012 21:06 19,8 C 54 % 1015,4 hPa 0,0 l/m 0,0 km/h (0 Bft) S-SO 157 10,2 C 19,8 C
15.08.2012 21:11 19,8 C 55 % 1015,5 hPa 0,0 l/m 2,9 km/h (1 Bft) SO 135 10,5 C 19,8 C
15.08.2012 21:16 19,6 C 55 % 1015,4 hPa 0,0 l/m 2,9 km/h (1 Bft) SO 135 10,3 C 19,6 C
15.08.2012 21:21 19,4 C 56 % 1015,4 hPa 0,0 l/m 1,1 km/h (1 Bft) O-SO 112 10,4 C 19,4 C
15.08.2012 21:26 19,2 C 56 % 1015,4 hPa 0,0 l/m 2,5 km/h (1 Bft) O-SO 112 10,2 C 19,2 C
15.08.2012 21:31 19,1 C 57 % 1015,3 hPa 0,0 l/m 2,2 km/h (1 Bft) S-SO 157 10,4 C 19,1 C
15.08.2012 21:36 18,9 C 57 % 1015,6 hPa 0,0 l/m 0,0 km/h (0 Bft) SO 135 10,2 C 18,9 C
15.08.2012 21:41 18,8 C 58 % 1015,6 hPa 0,0 l/m 2,2 km/h (1 Bft) SO 135 10,4 C 18,8 C
15.08.2012 21:46 18,6 C 58 % 1015,7 hPa 0,0 l/m 0,0 km/h (0 Bft) SO 135 10,2 C 18,6 C
15.08.2012 21:51 18,5 C 59 % 1015,7 hPa 0,0 l/m 2,2 km/h (1 Bft) O-SO 112 10,3 C 18,5 C
15.08.2012 21:56 18,4 C 59 % 1015,6 hPa 0,0 l/m 0,0 km/h (0 Bft) O-SO 112 10,2 C 18,4 C
15.08.2012 22:01 18,2 C 60 % 1015,5 hPa 0,0 l/m 3,6 km/h (1 Bft) O-SO 112 10,3 C 18,2 C
15.08.2012 22:06 18,1 C 60 % 1015,5 hPa 0,0 l/m 0,0 km/h (0 Bft) O-SO 112 10,2 C 18,1 C
15.08.2012 22:11 17,9 C 61 % 1015,5 hPa 0,0 l/m 3,2 km/h (1 Bft) O-SO 112 10,3 C 17,9 C
15.08.2012 22:16 17,9 C 61 % 1015,6 hPa 0,0 l/m 1,4 km/h (1 Bft) SO 135 10,3 C 17,9 C
15.08.2012 22:21 17,8 C 61 % 1015,7 hPa 0,0 l/m 0,0 km/h (0 Bft) O-SO 112 10,2 C 17,8 C
15.08.2012 22:26 17,6 C 62 % 1015,6 hPa 0,0 l/m 0,0 km/h (0 Bft) O-SO 112 10,2 C 17,6 C
15.08.2012 22:31 17,5 C 62 % 1015,6 hPa 0,0 l/m 1,8 km/h (1 Bft) SO 135 10,1 C 17,5 C
15.08.2012 22:36 17,4 C 63 % 1015,5 hPa 0,0 l/m 0,0 km/h (0 Bft) SO 135 10,3 C 17,4 C
15.08.2012 22:41 17,3 C 64 % 1015,5 hPa 0,0 l/m 3,6 km/h (1 Bft) O-SO 112 10,4 C 17,3 C
15.08.2012 22:46 17,1 C 64 % 1015,4 hPa 0,0 l/m 2,9 km/h (1 Bft) O-SO 112 10,2 C 17,1 C
15.08.2012 22:51 17,0 C 65 % 1015,3 hPa 0,0 l/m 7,6 km/h (2 Bft) O-SO 112 10,4 C 17,0 C
15.08.2012 22:56 16,9 C 66 % 1015,1 hPa 0,0 l/m 3,6 km/h (1 Bft) O-NO 67 10,5 C 16,9 C
15.08.2012 23:01 16,8 C 66 % 1015,4 hPa 0,0 l/m 0,0 km/h (0 Bft) O 90 10,4 C 16,8 C
15.08.2012 23:06 16,8 C 66 % 1015,4 hPa 0,0 l/m 3,6 km/h (1 Bft) O-SO 112 10,4 C 16,8 C
15.08.2012 23:11 16,7 C 66 % 1015,4 hPa 0,0 l/m 1,4 km/h (1 Bft) O-SO 112 10,3 C 16,7 C
15.08.2012 23:16 16,5 C 67 % 1015,5 hPa 0,0 l/m 1,8 km/h (1 Bft) O-SO 112 10,4 C 16,5 C
15.08.2012 23:21 16,4 C 67 % 1015,3 hPa 0,0 l/m 5,0 km/h (1 Bft) O-SO 112 10,3 C 16,4 C
15.08.2012 23:26 16,3 C 68 % 1015,3 hPa 0,0 l/m 2,5 km/h (1 Bft) O-SO 112 10,4 C 16,3 C
15.08.2012 23:31 16,3 C 68 % 1015,3 hPa 0,0 l/m 2,5 km/h (1 Bft) O-SO 112 10,4 C 16,3 C
15.08.2012 23:36 16,1 C 69 % 1015,4 hPa 0,0 l/m 4,7 km/h (1 Bft) O-SO 112 10,4 C 16,1 C
15.08.2012 23:41 16,1 C 70 % 1015,4 hPa 0,0 l/m 2,2 km/h (1 Bft) O-NO 67 10,6 C 16,1 C
15.08.2012 23:46 16,0 C 70 % 1015,5 hPa 0,0 l/m 4,0 km/h (1 Bft) O-SO 112 10,5 C 16,0 C
15.08.2012 23:51 15,9 C 70 % 1015,5 hPa 0,0 l/m 4,7 km/h (1 Bft) O-SO 112 10,4 C 15,9 C
15.08.2012 23:56 15,9 C 71 % 1015,4 hPa 0,0 l/m 2,5 km/h (1 Bft) O-SO 112 10,6 C 15,9 C
_ Min-Zeit 06:06 16:26 20:06 - 02:06 - - 06:06 06:06
Minimum _ 10,8 C 41 % 1014,9 hPa - 0,0 km/h (0 Bft) - - 8,2 C 10,8 C
_ Max-Zeit 16:51 06:51 00:06 00:01 11:51 - - 09:41 16:51
Maximum _ 25,6 C 89 % 1018,7 hPa 0,0 l/m 15,8 km/h
O-NO (3 Bft)
- - 13,2 C 25,6 C
Durchschnitt _ 18,3 C 64 % 1017,1 hPa #0,0 l/m 4,5 km/h (1 Bft) O-SO - 10,8 C 18,3 C
(c) by David Heller